createdAt,value
2023-05-14T00:02:22.110Z,11.10
2023-05-14T00:04:49.961Z,11.97
2023-05-14T00:07:17.809Z,11.33
2023-05-14T00:09:45.518Z,11.63
2023-05-14T00:12:13.188Z,12.50
2023-05-14T00:14:40.821Z,11.83
2023-05-14T00:17:08.550Z,12.67
2023-05-14T00:19:37.628Z,12.40
2023-05-14T00:22:05.577Z,12.70
2023-05-14T00:24:33.288Z,13.33
2023-05-14T00:27:00.986Z,14.03
2023-05-14T00:29:28.653Z,13.40
2023-05-14T00:31:56.351Z,13.70
2023-05-14T00:34:24.268Z,14.43
2023-05-14T00:36:53.668Z,14.47
2023-05-14T00:39:21.348Z,13.93
2023-05-14T00:41:49.020Z,17.00
2023-05-14T00:44:16.735Z,14.37
2023-05-14T00:46:44.677Z,14.43
2023-05-14T00:49:12.427Z,15.73
2023-05-14T00:51:41.452Z,14.50
2023-05-14T00:54:10.951Z,16.37
2023-05-14T00:56:38.609Z,13.77
2023-05-14T00:59:06.445Z,14.77
2023-05-14T01:01:34.277Z,14.60
2023-05-14T01:04:02.384Z,14.97
2023-05-14T01:06:33.533Z,13.87
2023-05-14T01:09:09.096Z,14.60
2023-05-14T01:11:43.819Z,14.10
2023-05-14T01:14:17.340Z,14.67
2023-05-14T01:16:46.792Z,15.17
2023-05-14T01:19:22.883Z,14.17
2023-05-14T01:21:51.920Z,15.30
2023-05-14T01:24:20.098Z,15.23
2023-05-14T01:26:47.811Z,15.00
2023-05-14T01:29:21.491Z,13.47
2023-05-14T01:31:51.161Z,15.07
2023-05-14T01:34:21.373Z,13.50
2023-05-14T01:36:49.747Z,14.83
2023-05-14T01:39:18.909Z,14.60
2023-05-14T01:41:47.146Z,13.87
2023-05-14T01:44:15.172Z,14.07
2023-05-14T01:46:42.942Z,13.77
2023-05-14T01:49:10.640Z,14.77
2023-05-14T01:51:38.320Z,14.17
2023-05-14T01:54:06.202Z,13.77
2023-05-14T01:56:35.357Z,14.27
2023-05-14T01:59:03.109Z,13.27
2023-05-14T02:01:30.902Z,14.77
2023-05-14T02:03:58.702Z,14.97
2023-05-14T02:06:26.428Z,14.63
2023-05-14T02:08:54.211Z,15.07
2023-05-14T02:11:22.019Z,14.77
2023-05-14T02:13:51.095Z,14.20
2023-05-14T02:16:19.308Z,16.27
2023-05-14T02:18:47.105Z,15.37
2023-05-14T02:21:14.816Z,15.87
2023-05-14T02:23:43.025Z,16.27
2023-05-14T02:26:11.030Z,16.13
2023-05-14T02:28:38.823Z,14.70
2023-05-14T02:31:07.992Z,16.77
2023-05-14T02:33:36.011Z,16.37
2023-05-14T02:36:03.860Z,15.13
2023-05-14T02:38:31.577Z,16.93
2023-05-14T02:40:59.658Z,16.07
2023-05-14T02:43:27.332Z,18.47
2023-05-14T02:45:55.041Z,17.80
2023-05-14T02:48:24.197Z,16.60
2023-05-14T02:50:52.208Z,17.37
2023-05-14T02:53:19.934Z,17.67
2023-05-14T02:55:47.574Z,17.40
2023-05-14T02:58:15.915Z,16.77
2023-05-14T03:00:43.606Z,18.40
2023-05-14T03:03:11.776Z,16.83
2023-05-14T03:05:41.392Z,18.60
2023-05-14T03:08:09.054Z,17.90
2023-05-14T03:10:37.053Z,18.57
2023-05-14T03:13:04.848Z,18.07
2023-05-14T03:15:32.492Z,17.03
2023-05-14T03:18:00.200Z,17.30
2023-05-14T03:20:28.161Z,16.97
2023-05-14T03:22:57.230Z,17.83
2023-05-14T03:25:24.884Z,19.63
2023-05-14T03:27:52.719Z,20.60
2023-05-14T03:30:20.536Z,21.37
2023-05-14T03:32:49.225Z,18.47
2023-05-14T03:35:17.071Z,19.33
2023-05-14T03:37:44.925Z,17.87
2023-05-14T03:40:14.149Z,18.80
2023-05-14T03:42:41.793Z,17.10
2023-05-14T03:45:10.779Z,18.23
2023-05-14T03:47:38.573Z,16.37
2023-05-14T03:50:07.677Z,18.13
2023-05-14T03:52:35.443Z,17.90
2023-05-14T03:55:03.119Z,18.37
2023-05-14T03:57:32.202Z,18.23
2023-05-14T03:59:59.841Z,17.73
2023-05-14T04:02:27.611Z,19.87
2023-05-14T04:04:55.437Z,19.57
2023-05-14T04:07:23.590Z,18.13
2023-05-14T04:09:52.126Z,18.43
2023-05-14T04:12:19.899Z,17.57
2023-05-14T04:14:48.989Z,20.70
2023-05-14T04:17:16.656Z,19.37
2023-05-14T04:19:44.368Z,20.83
2023-05-14T04:22:12.148Z,19.77
2023-05-14T04:24:39.866Z,20.17
2023-05-14T04:27:07.596Z,19.40
2023-05-14T04:29:35.283Z,19.93
2023-05-14T04:32:04.883Z,18.20
2023-05-14T04:34:32.687Z,19.00
2023-05-14T04:37:00.368Z,19.60
2023-05-14T04:39:28.057Z,18.47
2023-05-14T04:41:55.768Z,16.87
2023-05-14T04:44:23.461Z,16.80
2023-05-14T04:46:51.203Z,16.50
2023-05-14T04:49:20.836Z,17.23
2023-05-14T04:51:48.657Z,17.13
2023-05-14T04:54:16.392Z,15.87
2023-05-14T04:56:44.116Z,15.73
2023-05-14T04:59:11.840Z,15.93
2023-05-14T05:01:39.621Z,15.10
2023-05-14T05:04:07.458Z,14.53
2023-05-14T05:06:36.520Z,14.57
2023-05-14T05:09:04.519Z,15.07
2023-05-14T05:11:32.194Z,13.53
2023-05-14T05:14:00.288Z,15.07
2023-05-14T05:16:28.005Z,13.40
2023-05-14T05:18:55.845Z,13.10
2023-05-14T05:21:23.579Z,11.87
2023-05-14T05:23:52.611Z,11.77
2023-05-14T05:26:22.274Z,11.20
2023-05-14T05:28:49.990Z,11.57
2023-05-14T05:31:19.653Z,11.53
2023-05-14T05:33:47.724Z,10.97
2023-05-14T05:36:15.427Z,10.70
2023-05-14T05:38:43.192Z,10.63
2023-05-14T05:41:12.237Z,10.93
2023-05-14T05:43:39.959Z,11.17
2023-05-14T05:46:08.121Z,11.30
2023-05-14T05:48:35.839Z,11.00
2023-05-14T05:51:03.492Z,11.93
2023-05-14T05:53:31.213Z,11.13
2023-05-14T05:55:58.910Z,10.53
2023-05-14T05:58:27.987Z,11.80
2023-05-14T06:00:57.604Z,10.50
2023-05-14T06:03:25.307Z,11.30
2023-05-14T06:05:53.637Z,11.27
2023-05-14T06:08:21.727Z,10.63
2023-05-14T06:10:49.374Z,10.80
2023-05-14T06:13:17.069Z,11.13
2023-05-14T06:15:46.089Z,11.17
2023-05-14T06:18:13.805Z,11.83
2023-05-14T06:20:41.687Z,12.03
2023-05-14T06:23:12.237Z,11.67
2023-05-14T06:25:39.971Z,11.80
2023-05-14T06:28:07.623Z,11.63
2023-05-14T06:30:35.318Z,12.00
2023-05-14T06:33:04.649Z,12.07
2023-05-14T06:35:32.430Z,10.80
2023-05-14T06:38:00.134Z,10.50
2023-05-14T06:40:27.895Z,10.93
2023-05-14T06:42:55.568Z,11.83
2023-05-14T06:45:23.619Z,12.93
2023-05-14T06:47:51.382Z,11.10
2023-05-14T06:50:20.579Z,10.70
2023-05-14T06:52:48.403Z,11.03
2023-05-14T06:55:16.119Z,11.00
2023-05-14T06:57:44.638Z,10.53
2023-05-14T07:00:14.353Z,11.10
2023-05-14T07:02:42.086Z,10.97
2023-05-14T07:05:10.346Z,11.63
2023-05-14T07:07:39.880Z,10.97
2023-05-14T07:10:09.193Z,11.73
2023-05-14T07:12:37.266Z,11.50
2023-05-14T07:15:05.673Z,11.20
2023-05-14T07:17:33.343Z,11.63
2023-05-14T07:20:01.005Z,10.20
2023-05-14T07:22:28.627Z,10.57
2023-05-14T07:24:57.676Z,11.07
2023-05-14T07:27:25.340Z,11.60
2023-05-14T07:29:53.037Z,10.60
2023-05-14T07:32:20.719Z,10.77
2023-05-14T07:34:48.800Z,10.70
2023-05-14T07:37:16.705Z,10.10
2023-05-14T07:39:44.437Z,10.43
2023-05-14T07:42:21.790Z,10.17
2023-05-14T07:44:52.632Z,10.00
2023-05-14T07:47:20.393Z,10.80
2023-05-14T07:49:48.114Z,11.63
2023-05-14T07:52:15.860Z,11.07
2023-05-14T07:54:43.546Z,10.27
2023-05-14T07:57:11.260Z,10.30
2023-05-14T07:59:40.463Z,10.57
2023-05-14T08:02:10.125Z,10.70
2023-05-14T08:04:37.985Z,10.77
2023-05-14T08:07:07.272Z,10.43
2023-05-14T08:09:35.157Z,10.40
2023-05-14T08:12:02.900Z,10.10
2023-05-14T08:14:30.628Z,11.10
2023-05-14T08:17:00.068Z,11.37
2023-05-14T08:19:27.841Z,11.53
2023-05-14T08:21:55.550Z,11.20
2023-05-14T08:24:23.222Z,10.80
2023-05-14T08:26:50.908Z,11.07
2023-05-14T08:29:18.761Z,10.97
2023-05-14T08:31:46.511Z,11.63
2023-05-14T08:34:15.689Z,11.60
2023-05-14T08:36:43.567Z,11.63
2023-05-14T08:39:11.231Z,11.63
2023-05-14T08:41:38.893Z,11.70
2023-05-14T08:44:09.259Z,12.47
2023-05-14T08:46:37.887Z,12.47
2023-05-14T08:49:11.276Z,12.87
2023-05-14T08:51:41.083Z,12.10
2023-05-14T08:54:08.758Z,12.50
2023-05-14T08:56:36.942Z,11.67
2023-05-14T08:59:04.986Z,11.70
2023-05-14T09:01:32.785Z,10.57
2023-05-14T09:04:01.555Z,10.37
2023-05-14T09:06:29.578Z,9.80
2023-05-14T09:08:58.687Z,9.70
2023-05-14T09:11:26.393Z,10.47
2023-05-14T09:13:54.110Z,10.00
2023-05-14T09:16:22.149Z,10.33
2023-05-14T09:18:49.936Z,9.50
2023-05-14T09:21:18.939Z,8.57
2023-05-14T09:23:47.766Z,7.77
2023-05-14T09:26:18.162Z,9.23
2023-05-14T09:28:45.896Z,7.93
2023-05-14T09:31:13.696Z,5.80
2023-05-14T09:33:41.431Z,5.77
2023-05-14T09:36:09.479Z,6.50
2023-05-14T09:38:37.103Z,6.30
2023-05-14T09:41:04.998Z,6.50
2023-05-14T09:43:34.056Z,5.90
2023-05-14T09:46:01.750Z,6.97
2023-05-14T09:48:29.715Z,6.67
2023-05-14T09:50:57.623Z,7.40
2023-05-14T09:53:26.066Z,6.87
2023-05-14T09:55:53.782Z,6.80
2023-05-14T09:58:21.492Z,6.30
2023-05-14T10:00:51.297Z,6.90
2023-05-14T10:03:20.190Z,6.93
2023-05-14T10:05:51.105Z,7.60
2023-05-14T10:08:23.108Z,7.37
2023-05-14T10:10:52.442Z,7.57
2023-05-14T10:13:22.183Z,7.47
2023-05-14T10:15:54.954Z,7.97
2023-05-14T10:18:24.937Z,7.17
2023-05-14T10:20:58.384Z,7.70
2023-05-14T10:23:26.365Z,7.63
2023-05-14T10:25:54.214Z,7.10
2023-05-14T10:28:21.968Z,7.07
2023-05-14T10:30:51.096Z,7.17
2023-05-14T10:33:19.069Z,6.70
2023-05-14T10:35:56.306Z,6.47
2023-05-14T10:38:27.081Z,6.30
2023-05-14T10:41:00.138Z,6.20
2023-05-14T10:43:29.397Z,6.13
2023-05-14T10:45:59.401Z,6.67
2023-05-14T10:48:27.334Z,5.83
2023-05-14T10:50:55.613Z,5.60
2023-05-14T10:53:33.047Z,5.93
2023-05-14T10:56:05.310Z,6.13
2023-05-14T10:58:34.696Z,5.80
2023-05-14T11:01:04.787Z,6.67
2023-05-14T11:03:32.620Z,6.83
2023-05-14T11:06:02.497Z,6.40
2023-05-14T11:08:30.439Z,6.33
2023-05-14T11:10:58.517Z,5.23
2023-05-14T11:13:27.320Z,4.73
2023-05-14T11:15:55.208Z,4.93
2023-05-14T11:18:31.681Z,5.33
2023-05-14T11:21:00.279Z,5.23
2023-05-14T11:23:28.671Z,4.73
2023-05-14T11:25:57.751Z,4.83
2023-05-14T11:28:27.209Z,4.17
2023-05-14T11:30:55.485Z,3.93
2023-05-14T11:33:23.279Z,4.17
2023-05-14T11:35:52.350Z,4.13
2023-05-14T11:38:23.111Z,4.53
2023-05-14T11:40:54.565Z,4.67
2023-05-14T11:43:23.738Z,4.13
2023-05-14T11:45:52.556Z,4.97
2023-05-14T11:48:20.821Z,4.50
2023-05-14T11:50:50.044Z,4.57
2023-05-14T11:53:20.354Z,4.60
2023-05-14T11:55:54.777Z,4.70
2023-05-14T11:58:24.720Z,4.90
2023-05-14T12:00:57.382Z,4.20
2023-05-14T12:03:29.584Z,4.33
2023-05-14T12:06:00.666Z,4.13
2023-05-14T12:08:31.264Z,4.03
2023-05-14T12:11:00.467Z,4.37
2023-05-14T12:13:28.784Z,4.23
2023-05-14T12:15:58.004Z,4.40
2023-05-14T12:18:26.694Z,4.10
2023-05-14T12:20:54.701Z,4.10
2023-05-14T12:23:26.825Z,4.27
2023-05-14T12:25:56.421Z,4.23
2023-05-14T12:28:24.995Z,4.33
2023-05-14T12:30:57.642Z,4.60
2023-05-14T12:33:26.507Z,4.23
2023-05-14T12:35:58.957Z,4.67
2023-05-14T12:38:28.369Z,4.80
2023-05-14T12:40:57.401Z,4.83
2023-05-14T12:43:25.080Z,3.70
2023-05-14T12:45:52.780Z,3.67
2023-05-14T12:48:20.552Z,3.17
2023-05-14T12:50:48.755Z,3.53
2023-05-14T12:53:16.822Z,3.20
2023-05-14T12:55:44.514Z,3.20
2023-05-14T12:58:13.705Z,3.20
2023-05-14T13:00:41.407Z,3.57
2023-05-14T13:03:09.149Z,3.40
2023-05-14T13:05:36.886Z,3.70
2023-05-14T13:08:04.595Z,3.33
2023-05-14T13:10:32.366Z,3.33
2023-05-14T13:13:00.113Z,3.13
2023-05-14T13:15:31.556Z,3.53
2023-05-14T13:17:59.347Z,3.17
2023-05-14T13:20:27.572Z,3.17
2023-05-14T13:22:55.356Z,3.60
2023-05-14T13:25:23.289Z,3.33
2023-05-14T13:27:51.709Z,3.50
2023-05-14T13:30:19.613Z,3.00
2023-05-14T13:32:48.840Z,3.13
2023-05-14T13:35:16.622Z,3.00
2023-05-14T13:37:44.766Z,3.07
2023-05-14T13:40:13.342Z,3.27
2023-05-14T13:42:41.099Z,2.70
2023-05-14T13:45:09.819Z,3.10
2023-05-14T13:47:37.575Z,2.83
2023-05-14T13:50:07.816Z,2.70
2023-05-14T13:52:35.537Z,2.73
2023-05-14T13:55:03.177Z,2.83
2023-05-14T13:57:30.821Z,2.93
2023-05-14T13:59:58.556Z,2.57
2023-05-14T14:02:26.303Z,3.13
2023-05-14T14:04:54.434Z,2.67
2023-05-14T14:07:23.531Z,3.00
2023-05-14T14:09:51.482Z,2.87
2023-05-14T14:12:19.185Z,2.67
2023-05-14T14:14:46.942Z,2.90
2023-05-14T14:17:14.640Z,3.17
2023-05-14T14:19:42.451Z,2.93
2023-05-14T14:22:10.306Z,3.17
2023-05-14T14:24:39.452Z,3.33
2023-05-14T14:27:07.185Z,2.80
2023-05-14T14:29:35.466Z,2.90
2023-05-14T14:32:03.188Z,2.50
2023-05-14T14:34:31.014Z,2.60
2023-05-14T14:36:58.699Z,2.53
2023-05-14T14:39:26.534Z,2.70
2023-05-14T14:41:56.106Z,3.00
2023-05-14T14:44:23.818Z,2.50
2023-05-14T14:46:51.588Z,3.07
2023-05-14T14:49:19.228Z,3.37
2023-05-14T14:51:46.937Z,2.80
2023-05-14T14:54:14.600Z,3.20
2023-05-14T14:56:43.350Z,2.80
2023-05-14T14:59:12.422Z,2.83
2023-05-14T15:01:40.181Z,3.40
2023-05-14T15:04:08.010Z,3.00
2023-05-14T15:06:35.647Z,3.03
2023-05-14T15:09:03.611Z,2.93
2023-05-14T15:11:31.318Z,3.33
2023-05-14T15:13:58.981Z,3.10
2023-05-14T15:16:29.187Z,2.93
2023-05-14T15:18:56.925Z,3.20
2023-05-14T15:21:24.638Z,3.03
2023-05-14T15:23:52.352Z,3.17
2023-05-14T15:26:20.230Z,3.17
2023-05-14T15:28:47.995Z,2.77
2023-05-14T15:31:15.746Z,3.27
2023-05-14T15:33:44.834Z,3.33
2023-05-14T15:36:12.841Z,2.90
2023-05-14T15:38:40.601Z,3.60
2023-05-14T15:41:08.599Z,3.07
2023-05-14T15:43:36.573Z,3.63
2023-05-14T15:46:04.267Z,3.10
2023-05-14T15:48:32.001Z,3.10
2023-05-14T15:51:01.034Z,3.27
2023-05-14T15:53:28.882Z,3.70
2023-05-14T15:55:56.589Z,3.70
2023-05-14T15:58:24.243Z,3.40
2023-05-14T16:00:51.904Z,3.83
2023-05-14T16:03:19.730Z,3.53
2023-05-14T16:05:48.553Z,3.37
2023-05-14T16:08:17.656Z,2.97
2023-05-14T16:10:45.374Z,3.20
2023-05-14T16:13:13.096Z,3.57
2023-05-14T16:15:40.770Z,2.93
2023-05-14T16:18:08.617Z,3.20
2023-05-14T16:20:36.283Z,3.03
2023-05-14T16:23:04.024Z,3.13
2023-05-14T16:25:33.115Z,3.30
2023-05-14T16:28:01.500Z,2.93
2023-05-14T16:30:29.244Z,2.93
2023-05-14T16:32:57.054Z,3.33
2023-05-14T16:35:24.793Z,2.70
2023-05-14T16:37:52.448Z,3.23
2023-05-14T16:40:20.260Z,2.67
2023-05-14T16:42:49.764Z,2.97
2023-05-14T16:45:17.432Z,2.73
2023-05-14T16:47:45.368Z,3.17
2023-05-14T16:50:13.118Z,3.13
2023-05-14T16:52:40.797Z,2.60
2023-05-14T16:55:09.344Z,3.00
2023-05-14T16:57:37.087Z,2.80
2023-05-14T17:00:07.818Z,3.17
2023-05-14T17:02:35.580Z,2.93
2023-05-14T17:05:03.978Z,3.50
2023-05-14T17:07:32.178Z,2.83
2023-05-14T17:10:00.783Z,2.60
2023-05-14T17:12:28.538Z,2.97
2023-05-14T17:14:56.246Z,2.87
2023-05-14T17:17:25.415Z,2.80
2023-05-14T17:19:53.152Z,3.07
2023-05-14T17:22:21.211Z,3.47
2023-05-14T17:24:48.875Z,2.90
2023-05-14T17:27:16.843Z,3.33
2023-05-14T17:29:44.596Z,3.60
2023-05-14T17:32:12.702Z,3.57
2023-05-14T17:34:41.775Z,3.10
2023-05-14T17:37:09.561Z,3.23
2023-05-14T17:39:37.398Z,3.27
2023-05-14T17:42:06.342Z,2.80
2023-05-14T17:44:34.038Z,3.23
2023-05-14T17:47:03.097Z,3.27
2023-05-14T17:49:30.846Z,2.80
2023-05-14T17:51:59.830Z,3.13
2023-05-14T17:54:27.835Z,2.90
2023-05-14T17:56:55.659Z,3.70
2023-05-14T17:59:24.368Z,3.67
2023-05-14T18:01:52.233Z,3.70
2023-05-14T18:04:19.957Z,4.13
2023-05-14T18:06:47.704Z,4.27
2023-05-14T18:09:16.857Z,5.63
2023-05-14T18:11:45.296Z,5.10
2023-05-14T18:14:13.084Z,4.77
2023-05-14T18:16:41.250Z,4.43
2023-05-14T18:19:09.047Z,4.23
2023-05-14T18:21:36.944Z,3.73
2023-05-14T18:24:04.987Z,3.60
2023-05-14T18:26:35.012Z,3.60
2023-05-14T18:29:02.711Z,3.87
2023-05-14T18:31:30.572Z,3.50
2023-05-14T18:33:58.391Z,3.57
2023-05-14T18:36:26.132Z,3.60
2023-05-14T18:38:53.830Z,3.17
2023-05-14T18:41:21.519Z,3.07
2023-05-14T18:43:50.616Z,3.30
2023-05-14T18:46:18.358Z,3.50
2023-05-14T18:48:46.028Z,3.63
2023-05-14T18:51:13.916Z,4.03
2023-05-14T18:53:41.639Z,3.83
2023-05-14T18:56:09.586Z,3.90
2023-05-14T18:58:37.394Z,3.63
2023-05-14T19:01:06.433Z,3.87
2023-05-14T19:03:34.299Z,4.37
2023-05-14T19:06:02.046Z,4.20
2023-05-14T19:08:29.732Z,4.10
2023-05-14T19:10:57.370Z,3.70
2023-05-14T19:13:25.514Z,4.17
2023-05-14T19:15:53.290Z,4.10
2023-05-14T19:18:22.390Z,4.37
2023-05-14T19:20:50.122Z,4.10
2023-05-14T19:23:17.848Z,4.20
2023-05-14T19:25:45.913Z,4.60
2023-05-14T19:28:13.617Z,3.93
2023-05-14T19:30:41.292Z,4.03
2023-05-14T19:33:09.038Z,4.47
2023-05-14T19:35:38.250Z,4.30
2023-05-14T19:38:05.970Z,4.30
2023-05-14T19:40:33.646Z,4.30
2023-05-14T19:43:01.367Z,4.50
2023-05-14T19:45:29.439Z,4.40
2023-05-14T19:47:57.429Z,4.00
2023-05-14T19:50:25.198Z,4.30
2023-05-14T19:52:54.263Z,4.87
2023-05-14T19:55:21.947Z,6.03
2023-05-14T19:57:49.661Z,6.27
2023-05-14T20:00:17.810Z,7.07
2023-05-14T20:02:45.567Z,11.90
2023-05-14T20:05:13.930Z,12.90
2023-05-14T20:07:42.120Z,14.30
2023-05-14T20:10:11.809Z,14.40
2023-05-14T20:12:39.637Z,15.37
2023-05-14T20:15:08.104Z,16.70
2023-05-14T20:17:35.791Z,17.27
2023-05-14T20:20:04.900Z,18.53
2023-05-14T20:22:32.631Z,18.20
2023-05-14T20:25:00.287Z,17.77
2023-05-14T20:27:29.383Z,19.37
2023-05-14T20:29:57.070Z,19.47
2023-05-14T20:32:25.434Z,18.57
2023-05-14T20:34:53.095Z,17.57
2023-05-14T20:37:21.563Z,20.13
2023-05-14T20:39:49.264Z,20.47
2023-05-14T20:42:16.914Z,19.17
2023-05-14T20:44:48.221Z,19.33
2023-05-14T20:47:20.092Z,17.97
2023-05-14T20:49:48.284Z,18.43
2023-05-14T20:52:16.545Z,18.97
2023-05-14T20:54:44.451Z,19.03
2023-05-14T20:57:12.937Z,16.43
2023-05-14T20:59:40.633Z,17.70
2023-05-14T21:02:09.909Z,18.20
2023-05-14T21:04:37.860Z,19.07
2023-05-14T21:07:06.340Z,18.40
2023-05-14T21:09:34.183Z,19.63
2023-05-14T21:12:01.922Z,17.27
2023-05-14T21:14:29.583Z,19.13
2023-05-14T21:16:57.326Z,18.63
2023-05-14T21:19:26.331Z,18.43
2023-05-14T21:21:54.059Z,18.97
2023-05-14T21:24:21.764Z,18.73
2023-05-14T21:26:49.997Z,19.37
2023-05-14T21:29:18.775Z,18.57
2023-05-14T21:31:46.529Z,19.53
2023-05-14T21:34:14.273Z,19.43
2023-05-14T21:36:43.374Z,19.97
2023-05-14T21:39:11.060Z,20.10
2023-05-14T21:41:38.835Z,20.60
2023-05-14T21:44:06.731Z,19.80
2023-05-14T21:46:34.422Z,20.07
2023-05-14T21:49:02.199Z,21.03
2023-05-14T21:51:29.972Z,20.53
2023-05-14T21:53:59.059Z,19.43
2023-05-14T21:56:27.287Z,21.03
2023-05-14T21:58:56.116Z,21.60
2023-05-14T22:01:24.579Z,21.43
2023-05-14T22:03:52.387Z,21.60
2023-05-14T22:06:20.113Z,19.80
2023-05-14T22:08:47.830Z,21.43
2023-05-14T22:11:16.897Z,22.13
2023-05-14T22:13:44.530Z,23.77
2023-05-14T22:16:14.017Z,23.27
2023-05-14T22:18:42.580Z,24.63
2023-05-14T22:21:10.254Z,25.13
2023-05-14T22:23:37.960Z,24.77
2023-05-14T22:26:05.988Z,24.33
2023-05-14T22:28:35.107Z,25.77
2023-05-14T22:31:04.214Z,25.73
2023-05-14T22:33:33.118Z,26.57
2023-05-14T22:36:00.794Z,26.23
2023-05-14T22:38:28.487Z,27.47
2023-05-14T22:40:56.127Z,25.90
2023-05-14T22:43:23.912Z,25.97
2023-05-14T22:45:52.988Z,25.87
2023-05-14T22:48:20.641Z,27.63
2023-05-14T22:50:48.290Z,26.50
2023-05-14T22:53:16.216Z,29.33
2023-05-14T22:55:43.897Z,29.10
2023-05-14T22:58:11.774Z,28.73
2023-05-14T23:00:39.515Z,28.80
2023-05-14T23:03:08.704Z,31.20
2023-05-14T23:05:36.499Z,30.30
2023-05-14T23:08:04.419Z,29.20
2023-05-14T23:10:32.084Z,30.83
2023-05-14T23:12:59.746Z,29.50
2023-05-14T23:15:27.729Z,31.07
2023-05-14T23:17:55.539Z,32.87
2023-05-14T23:20:24.986Z,33.10
2023-05-14T23:22:54.070Z,31.90
2023-05-14T23:25:21.979Z,34.03
2023-05-14T23:27:50.067Z,33.47
2023-05-14T23:30:17.961Z,35.13
2023-05-14T23:32:45.782Z,34.23
2023-05-14T23:35:13.521Z,35.57
2023-05-14T23:37:47.234Z,35.10
2023-05-14T23:40:15.700Z,35.43
2023-05-14T23:42:43.906Z,35.57
2023-05-14T23:45:12.805Z,36.37
2023-05-14T23:47:41.438Z,36.63
2023-05-14T23:50:09.492Z,37.57
2023-05-14T23:52:37.171Z,36.10
2023-05-14T23:55:07.232Z,36.93
2023-05-14T23:57:35.062Z,37.20
